sensor_id;sensor_type;location;lat;lon;timestamp;P1;durP1;ratioP1;P2;durP2;ratioP2
30380;SDS011;17169;50.966;11.038;2022-08-18T00:01:22;14.50;;;4.97;;
30380;SDS011;17169;50.966;11.038;2022-08-18T00:04:25;11.52;;;4.10;;
30380;SDS011;17169;50.966;11.038;2022-08-18T00:07:29;10.25;;;4.30;;
30380;SDS011;17169;50.966;11.038;2022-08-18T00:10:32;7.75;;;4.55;;
30380;SDS011;17169;50.966;11.038;2022-08-18T00:13:36;12.50;;;4.45;;
30380;SDS011;17169;50.966;11.038;2022-08-18T00:16:39;16.40;;;4.63;;
30380;SDS011;17169;50.966;11.038;2022-08-18T00:19:41;9.93;;;4.05;;
30380;SDS011;17169;50.966;11.038;2022-08-18T00:22:44;14.63;;;4.45;;
30380;SDS011;17169;50.966;11.038;2022-08-18T00:25:46;11.10;;;3.95;;
30380;SDS011;17169;50.966;11.038;2022-08-18T00:28:50;13.13;;;4.68;;
30380;SDS011;17169;50.966;11.038;2022-08-18T00:31:53;9.10;;;4.28;;
30380;SDS011;17169;50.966;11.038;2022-08-18T00:34:55;14.07;;;4.30;;
30380;SDS011;17169;50.966;11.038;2022-08-18T00:37:58;10.48;;;5.03;;
30380;SDS011;17169;50.966;11.038;2022-08-18T00:41:02;9.18;;;4.80;;
30380;SDS011;17169;50.966;11.038;2022-08-18T00:44:06;9.93;;;4.80;;
30380;SDS011;17169;50.966;11.038;2022-08-18T00:47:09;17.30;;;5.60;;
30380;SDS011;17169;50.966;11.038;2022-08-18T00:50:13;10.13;;;5.22;;
30380;SDS011;17169;50.966;11.038;2022-08-18T00:53:18;15.80;;;4.97;;
30380;SDS011;17169;50.966;11.038;2022-08-18T00:56:27;17.60;;;4.50;;
30380;SDS011;17169;50.966;11.038;2022-08-18T00:59:36;8.13;;;4.78;;
30380;SDS011;17169;50.966;11.038;2022-08-18T01:02:45;14.85;;;5.45;;
30380;SDS011;17169;50.966;11.038;2022-08-18T01:05:52;9.25;;;5.07;;
30380;SDS011;17169;50.966;11.038;2022-08-18T01:09:00;11.27;;;4.97;;
30380;SDS011;17169;50.966;11.038;2022-08-18T01:12:03;15.50;;;5.07;;
30380;SDS011;17169;50.966;11.038;2022-08-18T01:15:08;10.02;;;4.63;;
30380;SDS011;17169;50.966;11.038;2022-08-18T01:18:13;15.65;;;4.68;;
30380;SDS011;17169;50.966;11.038;2022-08-18T01:21:33;16.95;;;4.68;;
30380;SDS011;17169;50.966;11.038;2022-08-18T01:24:55;12.95;;;4.70;;
30380;SDS011;17169;50.966;11.038;2022-08-18T01:28:18;13.27;;;5.07;;
30380;SDS011;17169;50.966;11.038;2022-08-18T01:31:31;12.98;;;4.90;;
30380;SDS011;17169;50.966;11.038;2022-08-18T01:34:37;8.73;;;4.70;;
30380;SDS011;17169;50.966;11.038;2022-08-18T01:37:40;16.95;;;5.60;;
30380;SDS011;17169;50.966;11.038;2022-08-18T01:40:44;13.07;;;5.32;;
30380;SDS011;17169;50.966;11.038;2022-08-18T01:43:47;9.70;;;4.63;;
30380;SDS011;17169;50.966;11.038;2022-08-18T01:46:50;18.20;;;5.35;;
30380;SDS011;17169;50.966;11.038;2022-08-18T01:49:53;8.45;;;5.43;;
30380;SDS011;17169;50.966;11.038;2022-08-18T01:52:56;8.50;;;5.10;;
30380;SDS011;17169;50.966;11.038;2022-08-18T01:56:00;12.85;;;6.00;;
30380;SDS011;17169;50.966;11.038;2022-08-18T01:59:04;16.92;;;5.20;;
30380;SDS011;17169;50.966;11.038;2022-08-18T02:02:11;10.70;;;5.63;;
30380;SDS011;17169;50.966;11.038;2022-08-18T02:05:18;9.30;;;5.47;;
30380;SDS011;17169;50.966;11.038;2022-08-18T02:08:25;19.05;;;5.22;;
30380;SDS011;17169;50.966;11.038;2022-08-18T02:11:29;14.68;;;5.40;;
30380;SDS011;17169;50.966;11.038;2022-08-18T02:14:32;11.30;;;5.35;;
30380;SDS011;17169;50.966;11.038;2022-08-18T02:17:35;14.63;;;5.55;;
30380;SDS011;17169;50.966;11.038;2022-08-18T02:20:38;9.95;;;6.30;;
30380;SDS011;17169;50.966;11.038;2022-08-18T02:23:41;11.93;;;5.30;;
30380;SDS011;17169;50.966;11.038;2022-08-18T02:26:46;13.90;;;5.40;;
30380;SDS011;17169;50.966;11.038;2022-08-18T02:29:48;11.15;;;5.43;;
30380;SDS011;17169;50.966;11.038;2022-08-18T02:32:51;11.90;;;5.57;;
30380;SDS011;17169;50.966;11.038;2022-08-18T02:35:53;10.75;;;5.07;;
30380;SDS011;17169;50.966;11.038;2022-08-18T02:38:56;16.83;;;5.30;;
30380;SDS011;17169;50.966;11.038;2022-08-18T02:42:00;17.35;;;5.35;;
30380;SDS011;17169;50.966;11.038;2022-08-18T02:45:02;9.43;;;5.20;;
30380;SDS011;17169;50.966;11.038;2022-08-18T02:48:05;11.07;;;5.38;;
30380;SDS011;17169;50.966;11.038;2022-08-18T02:51:09;7.80;;;4.93;;
30380;SDS011;17169;50.966;11.038;2022-08-18T02:54:13;14.70;;;4.72;;
30380;SDS011;17169;50.966;11.038;2022-08-18T02:57:17;13.02;;;4.97;;
30380;SDS011;17169;50.966;11.038;2022-08-18T03:00:21;12.80;;;6.13;;
30380;SDS011;17169;50.966;11.038;2022-08-18T03:03:24;11.85;;;5.25;;
30380;SDS011;17169;50.966;11.038;2022-08-18T03:06:27;12.15;;;5.18;;
30380;SDS011;17169;50.966;11.038;2022-08-18T03:09:31;11.60;;;5.17;;
30380;SDS011;17169;50.966;11.038;2022-08-18T03:12:36;9.43;;;5.40;;
30380;SDS011;17169;50.966;11.038;2022-08-18T03:15:38;12.13;;;5.57;;
30380;SDS011;17169;50.966;11.038;2022-08-18T03:18:41;9.90;;;5.35;;
30380;SDS011;17169;50.966;11.038;2022-08-18T03:21:45;11.98;;;5.75;;
30380;SDS011;17169;50.966;11.038;2022-08-18T03:24:48;11.10;;;5.38;;
30380;SDS011;17169;50.966;11.038;2022-08-18T03:27:52;14.18;;;6.35;;
30380;SDS011;17169;50.966;11.038;2022-08-18T03:30:54;10.77;;;5.50;;
30380;SDS011;17169;50.966;11.038;2022-08-18T03:33:57;15.43;;;6.10;;
30380;SDS011;17169;50.966;11.038;2022-08-18T03:37:00;9.27;;;5.20;;
30380;SDS011;17169;50.966;11.038;2022-08-18T03:40:03;15.23;;;5.00;;
30380;SDS011;17169;50.966;11.038;2022-08-18T03:43:07;14.52;;;5.65;;
30380;SDS011;17169;50.966;11.038;2022-08-18T03:46:11;11.55;;;4.97;;
30380;SDS011;17169;50.966;11.038;2022-08-18T03:49:15;9.57;;;4.87;;
30380;SDS011;17169;50.966;11.038;2022-08-18T03:52:20;14.50;;;6.05;;
30380;SDS011;17169;50.966;11.038;2022-08-18T03:55:23;7.97;;;5.05;;
30380;SDS011;17169;50.966;11.038;2022-08-18T03:58:28;14.93;;;5.45;;
30380;SDS011;17169;50.966;11.038;2022-08-18T04:01:32;7.60;;;4.68;;
30380;SDS011;17169;50.966;11.038;2022-08-18T04:04:38;8.48;;;5.45;;
30380;SDS011;17169;50.966;11.038;2022-08-18T04:07:41;12.55;;;5.95;;
30380;SDS011;17169;50.966;11.038;2022-08-18T04:10:43;8.27;;;5.20;;
30380;SDS011;17169;50.966;11.038;2022-08-18T04:13:47;10.23;;;6.13;;
30380;SDS011;17169;50.966;11.038;2022-08-18T04:16:50;11.23;;;6.20;;
30380;SDS011;17169;50.966;11.038;2022-08-18T04:19:54;11.80;;;5.97;;
30380;SDS011;17169;50.966;11.038;2022-08-18T04:22:57;11.77;;;6.47;;
30380;SDS011;17169;50.966;11.038;2022-08-18T04:25:59;12.25;;;6.53;;
30380;SDS011;17169;50.966;11.038;2022-08-18T04:29:04;12.90;;;6.07;;
30380;SDS011;17169;50.966;11.038;2022-08-18T04:32:08;9.45;;;6.65;;
30380;SDS011;17169;50.966;11.038;2022-08-18T04:35:11;11.57;;;6.13;;
30380;SDS011;17169;50.966;11.038;2022-08-18T04:38:14;10.38;;;6.28;;
30380;SDS011;17169;50.966;11.038;2022-08-18T04:41:16;15.23;;;6.60;;
30380;SDS011;17169;50.966;11.038;2022-08-18T04:44:20;10.68;;;6.68;;
30380;SDS011;17169;50.966;11.038;2022-08-18T04:47:23;16.67;;;7.15;;
30380;SDS011;17169;50.966;11.038;2022-08-18T04:50:25;17.27;;;7.32;;
30380;SDS011;17169;50.966;11.038;2022-08-18T04:53:28;17.27;;;6.60;;
30380;SDS011;17169;50.966;11.038;2022-08-18T04:56:44;11.48;;;7.43;;
30380;SDS011;17169;50.966;11.038;2022-08-18T04:59:49;17.08;;;7.93;;
30380;SDS011;17169;50.966;11.038;2022-08-18T05:02:52;16.38;;;7.07;;
30380;SDS011;17169;50.966;11.038;2022-08-18T05:05:57;18.20;;;8.47;;
30380;SDS011;17169;50.966;11.038;2022-08-18T05:09:00;14.77;;;8.18;;
30380;SDS011;17169;50.966;11.038;2022-08-18T05:12:05;12.18;;;8.00;;
30380;SDS011;17169;50.966;11.038;2022-08-18T05:15:10;18.73;;;8.45;;
30380;SDS011;17169;50.966;11.038;2022-08-18T05:18:12;14.85;;;8.85;;
30380;SDS011;17169;50.966;11.038;2022-08-18T05:21:15;15.60;;;9.00;;
30380;SDS011;17169;50.966;11.038;2022-08-18T05:24:18;12.98;;;8.90;;
30380;SDS011;17169;50.966;11.038;2022-08-18T05:27:21;15.90;;;8.45;;
30380;SDS011;17169;50.966;11.038;2022-08-18T05:30:25;15.63;;;9.48;;
30380;SDS011;17169;50.966;11.038;2022-08-18T05:33:27;20.02;;;10.35;;
30380;SDS011;17169;50.966;11.038;2022-08-18T05:36:36;18.45;;;9.95;;
30380;SDS011;17169;50.966;11.038;2022-08-18T05:39:53;20.02;;;10.85;;
30380;SDS011;17169;50.966;11.038;2022-08-18T05:42:59;18.92;;;10.50;;
30380;SDS011;17169;50.966;11.038;2022-08-18T05:46:04;22.00;;;10.15;;
30380;SDS011;17169;50.966;11.038;2022-08-18T05:49:10;15.00;;;11.38;;
30380;SDS011;17169;50.966;11.038;2022-08-18T05:52:15;20.25;;;11.50;;
30380;SDS011;17169;50.966;11.038;2022-08-18T05:55:22;18.83;;;11.38;;
30380;SDS011;17169;50.966;11.038;2022-08-18T05:58:48;21.05;;;10.48;;
30380;SDS011;17169;50.966;11.038;2022-08-18T06:01:55;17.83;;;10.85;;
30380;SDS011;17169;50.966;11.038;2022-08-18T06:05:00;14.05;;;9.93;;
30380;SDS011;17169;50.966;11.038;2022-08-18T06:08:08;17.23;;;9.93;;
30380;SDS011;17169;50.966;11.038;2022-08-18T06:11:13;22.67;;;10.90;;
30380;SDS011;17169;50.966;11.038;2022-08-18T06:14:15;21.45;;;11.57;;
30380;SDS011;17169;50.966;11.038;2022-08-18T06:17:30;25.08;;;13.43;;
30380;SDS011;17169;50.966;11.038;2022-08-18T06:21:05;21.60;;;12.52;;
30380;SDS011;17169;50.966;11.038;2022-08-18T06:24:19;21.70;;;11.55;;
30380;SDS011;17169;50.966;11.038;2022-08-18T06:27:28;19.98;;;13.70;;
30380;SDS011;17169;50.966;11.038;2022-08-18T06:30:45;25.05;;;14.73;;
30380;SDS011;17169;50.966;11.038;2022-08-18T06:33:58;28.35;;;14.75;;
30380;SDS011;17169;50.966;11.038;2022-08-18T06:37:10;25.30;;;14.77;;
30380;SDS011;17169;50.966;11.038;2022-08-18T06:40:18;28.25;;;16.27;;
30380;SDS011;17169;50.966;11.038;2022-08-18T06:43:20;26.92;;;14.05;;
30380;SDS011;17169;50.966;11.038;2022-08-18T06:46:25;29.98;;;14.70;;
30380;SDS011;17169;50.966;11.038;2022-08-18T06:49:36;25.95;;;15.40;;
30380;SDS011;17169;50.966;11.038;2022-08-18T06:52:50;21.95;;;15.02;;
30380;SDS011;17169;50.966;11.038;2022-08-18T06:55:54;30.55;;;15.77;;
30380;SDS011;17169;50.966;11.038;2022-08-18T06:59:01;27.67;;;16.95;;
30380;SDS011;17169;50.966;11.038;2022-08-18T07:02:17;40.53;;;17.30;;
30380;SDS011;17169;50.966;11.038;2022-08-18T07:05:27;29.02;;;16.40;;
30380;SDS011;17169;50.966;11.038;2022-08-18T07:08:31;29.90;;;15.80;;
30380;SDS011;17169;50.966;11.038;2022-08-18T07:11:35;28.73;;;16.88;;
30380;SDS011;17169;50.966;11.038;2022-08-18T07:14:44;27.25;;;16.27;;
30380;SDS011;17169;50.966;11.038;2022-08-18T07:17:48;30.38;;;15.45;;
30380;SDS011;17169;50.966;11.038;2022-08-18T07:20:53;32.58;;;16.35;;
30380;SDS011;17169;50.966;11.038;2022-08-18T07:24:00;25.33;;;17.00;;
30380;SDS011;17169;50.966;11.038;2022-08-18T07:27:08;27.17;;;18.98;;
30380;SDS011;17169;50.966;11.038;2022-08-18T07:30:12;27.05;;;17.05;;
30380;SDS011;17169;50.966;11.038;2022-08-18T07:36:31;30.17;;;15.93;;
30380;SDS011;17169;50.966;11.038;2022-08-18T07:39:42;32.80;;;19.20;;
30380;SDS011;17169;50.966;11.038;2022-08-18T07:42:48;34.17;;;17.40;;
30380;SDS011;17169;50.966;11.038;2022-08-18T07:45:56;27.83;;;17.42;;
30380;SDS011;17169;50.966;11.038;2022-08-18T07:49:06;31.17;;;17.92;;
30380;SDS011;17169;50.966;11.038;2022-08-18T07:52:16;26.17;;;18.05;;
30380;SDS011;17169;50.966;11.038;2022-08-18T07:55:27;34.92;;;17.83;;
30380;SDS011;17169;50.966;11.038;2022-08-18T07:58:33;27.63;;;17.98;;
30380;SDS011;17169;50.966;11.038;2022-08-18T08:01:43;31.60;;;19.70;;
30380;SDS011;17169;50.966;11.038;2022-08-18T08:04:52;29.65;;;17.63;;
30380;SDS011;17169;50.966;11.038;2022-08-18T08:08:04;28.60;;;18.48;;
30380;SDS011;17169;50.966;11.038;2022-08-18T08:11:20;37.20;;;19.25;;
30380;SDS011;17169;50.966;11.038;2022-08-18T08:14:33;33.80;;;18.60;;
30380;SDS011;17169;50.966;11.038;2022-08-18T08:17:42;32.80;;;18.55;;
30380;SDS011;17169;50.966;11.038;2022-08-18T08:20:55;27.27;;;20.33;;
30380;SDS011;17169;50.966;11.038;2022-08-18T08:27:10;29.20;;;19.73;;
30380;SDS011;17169;50.966;11.038;2022-08-18T08:30:20;33.05;;;19.45;;
30380;SDS011;17169;50.966;11.038;2022-08-18T08:33:26;31.83;;;19.98;;
30380;SDS011;17169;50.966;11.038;2022-08-18T08:36:33;32.50;;;20.88;;
30380;SDS011;17169;50.966;11.038;2022-08-18T08:39:41;33.60;;;21.70;;
30380;SDS011;17169;50.966;11.038;2022-08-18T08:42:50;29.40;;;20.75;;
30380;SDS011;17169;50.966;11.038;2022-08-18T08:46:02;30.42;;;20.98;;
30380;SDS011;17169;50.966;11.038;2022-08-18T08:49:10;33.40;;;22.48;;
30380;SDS011;17169;50.966;11.038;2022-08-18T08:55:32;27.23;;;22.10;;
30380;SDS011;17169;50.966;11.038;2022-08-18T08:58:39;34.20;;;23.67;;
30380;SDS011;17169;50.966;11.038;2022-08-18T09:01:47;39.28;;;22.92;;
30380;SDS011;17169;50.966;11.038;2022-08-18T09:04:59;32.13;;;21.50;;
30380;SDS011;17169;50.966;11.038;2022-08-18T09:08:22;33.30;;;24.30;;
30380;SDS011;17169;50.966;11.038;2022-08-18T09:11:48;34.17;;;22.23;;
30380;SDS011;17169;50.966;11.038;2022-08-18T09:15:16;29.98;;;24.00;;
30380;SDS011;17169;50.966;11.038;2022-08-18T09:18:29;29.40;;;24.47;;
30380;SDS011;17169;50.966;11.038;2022-08-18T09:21:45;35.72;;;24.00;;
30380;SDS011;17169;50.966;11.038;2022-08-18T09:24:53;31.67;;;23.65;;
30380;SDS011;17169;50.966;11.038;2022-08-18T09:28:07;32.10;;;24.15;;
30380;SDS011;17169;50.966;11.038;2022-08-18T09:31:14;28.92;;;24.02;;
30380;SDS011;17169;50.966;11.038;2022-08-18T09:34:22;32.78;;;24.42;;
30380;SDS011;17169;50.966;11.038;2022-08-18T09:37:40;37.22;;;24.35;;
30380;SDS011;17169;50.966;11.038;2022-08-18T09:41:10;35.58;;;24.67;;
30380;SDS011;17169;50.966;11.038;2022-08-18T09:48:30;35.85;;;24.10;;
30380;SDS011;17169;50.966;11.038;2022-08-18T09:51:35;32.42;;;26.27;;
30380;SDS011;17169;50.966;11.038;2022-08-18T09:57:56;36.80;;;25.88;;
30380;SDS011;17169;50.966;11.038;2022-08-18T10:01:19;36.33;;;25.00;;
30380;SDS011;17169;50.966;11.038;2022-08-18T10:04:28;36.53;;;26.60;;
30380;SDS011;17169;50.966;11.038;2022-08-18T10:07:33;31.58;;;25.05;;
30380;SDS011;17169;50.966;11.038;2022-08-18T10:10:39;35.85;;;26.73;;
30380;SDS011;17169;50.966;11.038;2022-08-18T10:13:51;38.13;;;25.88;;
30380;SDS011;17169;50.966;11.038;2022-08-18T10:17:09;35.80;;;26.02;;
30380;SDS011;17169;50.966;11.038;2022-08-18T10:20:24;35.17;;;25.65;;
30380;SDS011;17169;50.966;11.038;2022-08-18T10:23:40;31.92;;;24.77;;
30380;SDS011;17169;50.966;11.038;2022-08-18T10:30:04;32.92;;;26.45;;
30380;SDS011;17169;50.966;11.038;2022-08-18T10:33:07;32.17;;;24.60;;
30380;SDS011;17169;50.966;11.038;2022-08-18T10:36:12;32.17;;;24.47;;
30380;SDS011;17169;50.966;11.038;2022-08-18T10:39:43;42.10;;;26.65;;
30380;SDS011;17169;50.966;11.038;2022-08-18T10:42:48;36.30;;;29.10;;
30380;SDS011;17169;50.966;11.038;2022-08-18T10:45:54;35.45;;;26.33;;
30380;SDS011;17169;50.966;11.038;2022-08-18T10:48:59;38.08;;;25.88;;
30380;SDS011;17169;50.966;11.038;2022-08-18T10:52:27;31.88;;;24.73;;
30380;SDS011;17169;50.966;11.038;2022-08-18T10:55:43;29.88;;;24.70;;
30380;SDS011;17169;50.966;11.038;2022-08-18T10:58:56;32.70;;;25.00;;
30380;SDS011;17169;50.966;11.038;2022-08-18T11:02:10;28.67;;;23.52;;
30380;SDS011;17169;50.966;11.038;2022-08-18T11:05:24;34.85;;;24.98;;
30380;SDS011;17169;50.966;11.038;2022-08-18T11:08:37;33.05;;;23.08;;
30380;SDS011;17169;50.966;11.038;2022-08-18T11:11:44;28.35;;;22.63;;
30380;SDS011;17169;50.966;11.038;2022-08-18T11:14:57;31.88;;;23.02;;
30380;SDS011;17169;50.966;11.038;2022-08-18T11:18:13;29.38;;;22.38;;
30380;SDS011;17169;50.966;11.038;2022-08-18T11:21:32;34.25;;;23.38;;
30380;SDS011;17169;50.966;11.038;2022-08-18T11:24:43;29.20;;;21.55;;
30380;SDS011;17169;50.966;11.038;2022-08-18T11:27:47;33.97;;;21.63;;
30380;SDS011;17169;50.966;11.038;2022-08-18T11:30:51;36.60;;;21.63;;
30380;SDS011;17169;50.966;11.038;2022-08-18T11:33:55;24.38;;;20.15;;
30380;SDS011;17169;50.966;11.038;2022-08-18T11:36:59;28.52;;;21.27;;
30380;SDS011;17169;50.966;11.038;2022-08-18T11:40:05;26.92;;;21.10;;
30380;SDS011;17169;50.966;11.038;2022-08-18T11:43:13;31.52;;;21.50;;
30380;SDS011;17169;50.966;11.038;2022-08-18T11:46:22;29.58;;;22.10;;
30380;SDS011;17169;50.966;11.038;2022-08-18T11:49:30;25.95;;;20.55;;
30380;SDS011;17169;50.966;11.038;2022-08-18T11:52:44;31.83;;;22.83;;
30380;SDS011;17169;50.966;11.038;2022-08-18T11:56:03;26.33;;;22.17;;
30380;SDS011;17169;50.966;11.038;2022-08-18T12:02:33;35.67;;;24.05;;
30380;SDS011;17169;50.966;11.038;2022-08-18T12:05:46;32.63;;;23.70;;
30380;SDS011;17169;50.966;11.038;2022-08-18T12:08:53;28.73;;;24.08;;
30380;SDS011;17169;50.966;11.038;2022-08-18T12:12:00;32.50;;;26.40;;
30380;SDS011;17169;50.966;11.038;2022-08-18T12:15:25;37.25;;;27.10;;
30380;SDS011;17169;50.966;11.038;2022-08-18T12:18:30;31.63;;;26.20;;
30380;SDS011;17169;50.966;11.038;2022-08-18T12:21:33;35.08;;;25.25;;
30380;SDS011;17169;50.966;11.038;2022-08-18T12:24:39;36.55;;;25.80;;
30380;SDS011;17169;50.966;11.038;2022-08-18T12:27:43;39.10;;;29.77;;
30380;SDS011;17169;50.966;11.038;2022-08-18T12:30:45;35.92;;;28.15;;
30380;SDS011;17169;50.966;11.038;2022-08-18T12:33:47;34.13;;;28.00;;
30380;SDS011;17169;50.966;11.038;2022-08-18T12:36:50;36.42;;;27.98;;
30380;SDS011;17169;50.966;11.038;2022-08-18T12:39:54;38.13;;;29.17;;
30380;SDS011;17169;50.966;11.038;2022-08-18T12:42:59;36.67;;;26.58;;
30380;SDS011;17169;50.966;11.038;2022-08-18T12:46:01;34.42;;;28.20;;
30380;SDS011;17169;50.966;11.038;2022-08-18T12:49:04;38.50;;;27.45;;
30380;SDS011;17169;50.966;11.038;2022-08-18T12:52:10;34.83;;;25.63;;
30380;SDS011;17169;50.966;11.038;2022-08-18T12:55:12;35.53;;;27.13;;
30380;SDS011;17169;50.966;11.038;2022-08-18T12:58:17;37.35;;;26.88;;
30380;SDS011;17169;50.966;11.038;2022-08-18T13:01:19;35.22;;;25.90;;
30380;SDS011;17169;50.966;11.038;2022-08-18T13:04:22;37.78;;;26.15;;
30380;SDS011;17169;50.966;11.038;2022-08-18T13:07:24;34.75;;;27.92;;
30380;SDS011;17169;50.966;11.038;2022-08-18T13:10:27;28.05;;;23.48;;
30380;SDS011;17169;50.966;11.038;2022-08-18T13:13:31;29.27;;;24.80;;
30380;SDS011;17169;50.966;11.038;2022-08-18T13:16:34;31.48;;;22.70;;
30380;SDS011;17169;50.966;11.038;2022-08-18T13:19:37;31.40;;;26.60;;
30380;SDS011;17169;50.966;11.038;2022-08-18T13:22:40;31.98;;;25.15;;
30380;SDS011;17169;50.966;11.038;2022-08-18T13:25:43;37.72;;;24.65;;
30380;SDS011;17169;50.966;11.038;2022-08-18T13:28:47;33.22;;;24.55;;
30380;SDS011;17169;50.966;11.038;2022-08-18T13:31:49;32.22;;;22.88;;
30380;SDS011;17169;50.966;11.038;2022-08-18T13:34:57;28.83;;;23.73;;
30380;SDS011;17169;50.966;11.038;2022-08-18T13:37:59;28.75;;;23.98;;
30380;SDS011;17169;50.966;11.038;2022-08-18T13:41:02;28.60;;;23.25;;
30380;SDS011;17169;50.966;11.038;2022-08-18T13:44:06;31.80;;;24.67;;
30380;SDS011;17169;50.966;11.038;2022-08-18T13:47:10;31.90;;;26.25;;
30380;SDS011;17169;50.966;11.038;2022-08-18T13:50:14;34.88;;;25.15;;
30380;SDS011;17169;50.966;11.038;2022-08-18T13:53:17;34.85;;;23.85;;
30380;SDS011;17169;50.966;11.038;2022-08-18T13:56:20;27.65;;;23.65;;
30380;SDS011;17169;50.966;11.038;2022-08-18T13:59:24;32.30;;;21.90;;
30380;SDS011;17169;50.966;11.038;2022-08-18T14:02:31;32.08;;;20.30;;
30380;SDS011;17169;50.966;11.038;2022-08-18T14:05:33;25.48;;;20.10;;
30380;SDS011;17169;50.966;11.038;2022-08-18T14:08:36;27.17;;;21.17;;
30380;SDS011;17169;50.966;11.038;2022-08-18T14:11:38;27.30;;;19.92;;
30380;SDS011;17169;50.966;11.038;2022-08-18T14:14:42;23.08;;;18.88;;
30380;SDS011;17169;50.966;11.038;2022-08-18T14:17:44;25.80;;;21.20;;
30380;SDS011;17169;50.966;11.038;2022-08-18T14:20:47;27.98;;;21.13;;
30380;SDS011;17169;50.966;11.038;2022-08-18T14:24:07;25.08;;;19.10;;
30380;SDS011;17169;50.966;11.038;2022-08-18T14:27:28;26.95;;;18.65;;
30380;SDS011;17169;50.966;11.038;2022-08-18T14:30:33;26.27;;;18.88;;
30380;SDS011;17169;50.966;11.038;2022-08-18T14:33:36;23.38;;;19.40;;
30380;SDS011;17169;50.966;11.038;2022-08-18T14:36:39;24.33;;;19.02;;
30380;SDS011;17169;50.966;11.038;2022-08-18T14:39:41;26.77;;;18.92;;
30380;SDS011;17169;50.966;11.038;2022-08-18T14:42:45;24.77;;;18.13;;
30380;SDS011;17169;50.966;11.038;2022-08-18T14:45:49;31.47;;;17.20;;
30380;SDS011;17169;50.966;11.038;2022-08-18T14:48:53;22.65;;;14.30;;
30380;SDS011;17169;50.966;11.038;2022-08-18T14:51:56;20.92;;;16.05;;
30380;SDS011;17169;50.966;11.038;2022-08-18T14:54:59;20.70;;;15.23;;
30380;SDS011;17169;50.966;11.038;2022-08-18T14:58:01;15.55;;;13.90;;
30380;SDS011;17169;50.966;11.038;2022-08-18T15:01:06;21.48;;;17.17;;
30380;SDS011;17169;50.966;11.038;2022-08-18T15:04:10;20.05;;;16.35;;
30380;SDS011;17169;50.966;11.038;2022-08-18T15:07:14;20.52;;;15.82;;
30380;SDS011;17169;50.966;11.038;2022-08-18T15:10:17;17.85;;;15.55;;
30380;SDS011;17169;50.966;11.038;2022-08-18T15:13:19;17.90;;;15.75;;
30380;SDS011;17169;50.966;11.038;2022-08-18T15:16:23;20.95;;;15.98;;
30380;SDS011;17169;50.966;11.038;2022-08-18T15:19:25;19.70;;;15.55;;
30380;SDS011;17169;50.966;11.038;2022-08-18T15:22:28;18.55;;;14.13;;
30380;SDS011;17169;50.966;11.038;2022-08-18T15:25:47;18.90;;;15.13;;
30380;SDS011;17169;50.966;11.038;2022-08-18T15:28:50;19.17;;;15.73;;
30380;SDS011;17169;50.966;11.038;2022-08-18T15:31:54;17.52;;;14.35;;
30380;SDS011;17169;50.966;11.038;2022-08-18T15:34:57;15.77;;;13.38;;
30380;SDS011;17169;50.966;11.038;2022-08-18T15:38:00;15.65;;;14.00;;
30380;SDS011;17169;50.966;11.038;2022-08-18T15:41:02;18.30;;;13.32;;
30380;SDS011;17169;50.966;11.038;2022-08-18T15:44:05;20.10;;;13.85;;
30380;SDS011;17169;50.966;11.038;2022-08-18T15:47:10;18.98;;;13.38;;
30380;SDS011;17169;50.966;11.038;2022-08-18T15:50:13;15.98;;;13.13;;
30380;SDS011;17169;50.966;11.038;2022-08-18T15:53:17;18.05;;;14.35;;
30380;SDS011;17169;50.966;11.038;2022-08-18T15:56:21;15.25;;;13.40;;
30380;SDS011;17169;50.966;11.038;2022-08-18T15:59:25;19.33;;;12.80;;
30380;SDS011;17169;50.966;11.038;2022-08-18T16:02:29;21.08;;;14.15;;
30380;SDS011;17169;50.966;11.038;2022-08-18T16:05:32;17.60;;;15.55;;
30380;SDS011;17169;50.966;11.038;2022-08-18T16:08:37;15.35;;;13.75;;
30380;SDS011;17169;50.966;11.038;2022-08-18T16:11:39;16.38;;;13.10;;
30380;SDS011;17169;50.966;11.038;2022-08-18T16:14:42;22.45;;;13.18;;
30380;SDS011;17169;50.966;11.038;2022-08-18T16:17:46;16.20;;;13.10;;
30380;SDS011;17169;50.966;11.038;2022-08-18T16:20:49;16.40;;;14.13;;
30380;SDS011;17169;50.966;11.038;2022-08-18T16:23:51;17.13;;;13.57;;
30380;SDS011;17169;50.966;11.038;2022-08-18T16:26:55;17.47;;;13.63;;
30380;SDS011;17169;50.966;11.038;2022-08-18T16:29:57;13.05;;;11.68;;
30380;SDS011;17169;50.966;11.038;2022-08-18T16:33:01;14.90;;;11.68;;
30380;SDS011;17169;50.966;11.038;2022-08-18T16:36:05;14.98;;;13.38;;
30380;SDS011;17169;50.966;11.038;2022-08-18T16:39:09;14.05;;;12.57;;
30380;SDS011;17169;50.966;11.038;2022-08-18T16:42:11;20.70;;;14.13;;
30380;SDS011;17169;50.966;11.038;2022-08-18T16:45:14;17.60;;;14.63;;
30380;SDS011;17169;50.966;11.038;2022-08-18T16:48:18;20.23;;;14.93;;
30380;SDS011;17169;50.966;11.038;2022-08-18T16:51:23;17.55;;;13.57;;
30380;SDS011;17169;50.966;11.038;2022-08-18T16:54:28;16.52;;;13.30;;
30380;SDS011;17169;50.966;11.038;2022-08-18T16:57:30;20.58;;;14.68;;
30380;SDS011;17169;50.966;11.038;2022-08-18T17:00:49;20.63;;;15.27;;
30380;SDS011;17169;50.966;11.038;2022-08-18T17:04:11;19.95;;;14.98;;
30380;SDS011;17169;50.966;11.038;2022-08-18T17:07:17;16.35;;;14.55;;
30380;SDS011;17169;50.966;11.038;2022-08-18T17:10:20;19.60;;;14.02;;
30380;SDS011;17169;50.966;11.038;2022-08-18T17:13:22;15.63;;;13.65;;
30380;SDS011;17169;50.966;11.038;2022-08-18T17:16:25;20.13;;;14.13;;
30380;SDS011;17169;50.966;11.038;2022-08-18T17:19:31;17.25;;;12.35;;
30380;SDS011;17169;50.966;11.038;2022-08-18T17:22:34;16.58;;;12.32;;
30380;SDS011;17169;50.966;11.038;2022-08-18T17:25:37;13.35;;;10.68;;
30380;SDS011;17169;50.966;11.038;2022-08-18T17:28:41;12.02;;;10.27;;
30380;SDS011;17169;50.966;11.038;2022-08-18T17:31:45;16.20;;;10.75;;
30380;SDS011;17169;50.966;11.038;2022-08-18T17:34:54;14.07;;;9.60;;
30380;SDS011;17169;50.966;11.038;2022-08-18T17:38:06;11.82;;;9.90;;
30380;SDS011;17169;50.966;11.038;2022-08-18T17:41:13;15.95;;;10.82;;
30380;SDS011;17169;50.966;11.038;2022-08-18T17:44:17;13.15;;;10.88;;
30380;SDS011;17169;50.966;11.038;2022-08-18T17:47:22;13.95;;;10.30;;
30380;SDS011;17169;50.966;11.038;2022-08-18T17:50:29;18.17;;;10.90;;
30380;SDS011;17169;50.966;11.038;2022-08-18T17:53:52;16.02;;;10.50;;
30380;SDS011;17169;50.966;11.038;2022-08-18T17:57:01;16.40;;;10.20;;
30380;SDS011;17169;50.966;11.038;2022-08-18T18:00:09;15.50;;;10.52;;
30380;SDS011;17169;50.966;11.038;2022-08-18T18:03:13;17.90;;;9.98;;
30380;SDS011;17169;50.966;11.038;2022-08-18T18:06:20;12.63;;;10.02;;
30380;SDS011;17169;50.966;11.038;2022-08-18T18:09:31;13.65;;;9.60;;
30380;SDS011;17169;50.966;11.038;2022-08-18T18:12:34;11.02;;;9.30;;
30380;SDS011;17169;50.966;11.038;2022-08-18T18:15:40;11.23;;;10.03;;
30380;SDS011;17169;50.966;11.038;2022-08-18T18:18:44;14.95;;;9.75;;
30380;SDS011;17169;50.966;11.038;2022-08-18T18:22:01;16.65;;;10.10;;
30380;SDS011;17169;50.966;11.038;2022-08-18T18:25:07;12.95;;;10.15;;